ADDS METAR Data INFO
IDs: Format: Raw Decoded Include TAF

Data at: 1948 UTC 18 Feb 2018

KMNN 181913Z AUTO 20010G19KT 7SM SCT026 05/M01 A3031 RMK AO2 T00501011
KMNN 181853Z AUTO 21014KT 7SM BKN026 04/M02 A3032 RMK AO2 SLP278 T00391017
KMNN 181753Z AUTO 20008KT 6SM HZ BKN021 03/M02 A3034 RMK AO2 SLP285 T00331017 10033 21011 58005
KMNN 181653Z AUTO 20007KT 6SM HZ BKN019 02/M03 A3035 RMK AO2 SLP289 T00171028
KMNN 181615Z AUTO VRB04KT 6SM HZ SCT019 01/M03 A3035 RMK AO2 T00111028
KMNN 181553Z AUTO 17007KT 6SM HZ OVC019 01/M03 A3036 RMK AO2 SLP290 T00111033
KMNN 181453Z AUTO 25003KT 5SM HZ FEW014 OVC023 00/M03 A3036 RMK AO2 SLP291 T00001033 51014
KMNN 181353Z AUTO 23004KT 4SM BR OVC023 M01/M03 A3036 RMK AO2 SLP291 T10061028
KMNN 181253Z AUTO 00000KT 4SM BR OVC024 M01/M03 A3033 RMK AO2 SLP283 T10061028
KMNN 181153Z AUTO 28006KT 6SM BR OVC027 M01/M03 A3031 RMK AO2 SLP277 60000 70003 T10061028 10011 21006 51029
KMNN 181053Z AUTO 28007KT 7SM OVC028 00/M03 A3030 RMK AO2 PRESRR SLP272 T00001028
KMNN 180953Z AUTO 29007KT 10SM OVC031 00/M03 A3025 RMK AO2 SLP256 T00001033
KMNN 180933Z AUTO 31007KT 10SM OVC030 00/M03 A3022 RMK AO2 T00001033
KMNN 180917Z AUTO 31009KT 10SM OVC029 01/M03 A3021 RMK AO2 T00061033
KMNN 180853Z AUTO 28008KT 10SM OVC031 01/M03 A3022 RMK AO2 PRESRR SLP246 60000 T00061028 53046
KMNN 180838Z AUTO 28007KT 9SM SCT023 OVC031 01/M03 A3020 RMK AO2 T00061028
KMNN 180753Z AUTO 29010KT 10SM OVC021 01/M03 A3018 RMK AO2 SLP230 T00061028
KMNN 180653Z AUTO 31011KT 10SM FEW015 OVC026 01/M02 A3013 RMK AO2 SNB16E25 SLP214 P0000 T00061017
KMNN 180553Z AUTO 29012G18KT 9SM BKN016 OVC024 01/M01 A3008 RMK AO2 SLP198 60003 T00111011 10011 20000 53026
KMNN 180453Z AUTO 27009KT 8SM OVC013 01/M01 A3004 RMK AO2 SLP184 T00111006 400111039
KMNN 180417Z AUTO 24010KT 6SM BR BKN010 OVC014 01/M01 A3003 RMK AO2 CIG 006V011 T00061006
KMNN 180353Z AUTO 23011KT 4SM BR BKN007 OVC012 01/M01 A3002 RMK AO2 SNE46 CIG 005V010 SLP176 P0002 T00061006
KMNN 180348Z AUTO 22010KT 3SM BR BKN007 OVC012 01/M01 A3002 RMK AO2 SNE46 CIG 005V010 P0002
KMNN 180339Z AUTO 22011KT 2SM -SN BR OVC005 01/M01 A3002 RMK AO2 CIG 004V010 P0001 T00061006
KMNN 180253Z AUTO 21007KT 1 1/2SM -SN BR BKN007 OVC024 00/M01 A3001 RMK AO2 SNB0157E10B27 SLP172 P0000 60001 T00001006 53001
KMNN 180248Z AUTO 21007KT 1 1/2SM -SN BR BKN007 OVC018 00/M01 A3000 RMK AO2 SNB0157E10B27 P0000
KMNN 180236Z AUTO 21008KT 1 3/4SM -SN BR BKN005 BKN020 OVC024 00/M01 A3001 RMK AO2 SNB0157E10B27 P0000 T00001006
KMNN 180153Z AUTO 20009KT 3SM BR OVC005 00/M01 A3000 RMK AO2 SNE47 SLP171 P0000 T00001011
KMNN 180149Z AUTO 20009KT 3SM BR OVC005 00/M01 A3000 RMK AO2 SNE47 P0000
KMNN 180110Z AUTO 20007KT 2 1/2SM -SN BR BKN005 BKN038 OVC048 00/M01 A3001 RMK AO2 P0000 T00001011
KMNN 180103Z AUTO 19008KT 2SM -SN BR BKN006 BKN042 OVC055 00/M01 A3000 RMK AO2 P0000 T00001011
KMNN 180053Z AUTO 19007KT 2 1/2SM -SN BR SCT006 BKN036 OVC044 00/M01 A3001 RMK AO2 SLP174 P0001 T00001011
KMNN 180043Z AUTO 20007KT 2SM -SN BR SCT006 OVC041 00/M01 A3001 RMK AO2 P0001 T00001011
KMNN 180036Z AUTO 19007KT 2SM -SN BR BKN007 OVC041 00/M01 A3001 RMK AO2 P0000 T00001011
KMNN 180016Z AUTO 20007KT 1 3/4SM -SN BR BKN007 OVC039 00/M01 A3002 RMK AO2 P0000 T00001011
KMNN 172353Z AUTO 21005KT 3SM -SN BR OVC007 00/M02 A3001 RMK AO2 SNB40 SLP176 P0000 60000 T00001017 10006 21006 51012
KMNN 172303Z AUTO 21005KT 3SM BR BKN008 OVC055 M01/M02 A3001 RMK AO2 T10061017
KMNN 172253Z AUTO 19006KT 3SM BR SCT007 OVC055 M01/M02 A3000 RMK AO2 SLP172 T10061017
KMNN 172153Z AUTO 18004KT 5SM BR FEW007 OVC055 M01/M02 A3000 RMK AO2 SNE05 SLP172 P0000 T10061022
KMNN 172143Z AUTO 17005KT 4SM BR FEW007 OVC060 M01/M02 A2999 RMK AO2 SNE05 P0000 T10061022
KMNN 172103Z AUTO 19004KT 3SM -SN BR FEW006 BKN021 OVC035 M01/M02 A2999 RMK AO2 P0000 T10061017
KMNN 172053Z AUTO 17006KT 1 1/2SM -SN BR FEW006 BKN024 OVC035 M01/M02 A2998 RMK AO2 SNB1955 SLP165 P0000 60000 T10061022 58022
KMNN 172011Z AUTO 19006KT 1 3/4SM -SN FEW016 BKN028 OVC039 00/M03 A3001 RMK AO2 SNB1955 P0000 T00001028
KMNN 172005Z AUTO 17006KT 2 1/2SM -SN BKN030 OVC039 00/M03 A3000 RMK AO2 SNB1955 P0000 T00001033
KMNN 171953Z AUTO 18006KT 7SM BKN028 BKN034 OVC044 01/M03 A3001 RMK AO2 SLP175 T00061033
KMNN 171853Z AUTO 19008KT 8SM BKN027 OVC100 00/M04 A3004 RMK AO2 SLP186 T00001039
KMNN 171848Z AUTO 19006KT 9SM BKN027 OVC100 00/M04 A3005 RMK AO2
KMNN 171753Z AUTO 17011KT 9SM OVC090 00/M04 A3006 RMK AO2 SLP191 T00001044 10000 21022 58036
KMNN 171653Z AUTO 15007KT 9SM BKN110 00/M04 A3010 RMK AO2 SLP205 T00001044
KMNN 171553Z AUTO 17004KT 9SM CLR M01/M05 A3015 RMK AO2 SLP220 T10061050
KMNN 171453Z AUTO 17006KT 8SM CLR M01/M04 A3017 RMK AO2 SLP228 T10061044 58016
KMNN 171353Z AUTO 18006KT 8SM OVC031 M01/M04 A3021 RMK AO2 SLP243 T10111039
KMNN 171253Z AUTO 00000KT 10SM OVC030 M02/M05 A3020 RMK AO2 SLP239 T10221050
KMNN 171153Z AUTO 17004KT 10SM OVC030 M02/M05 A3022 RMK AO2 SLP245 T10221050 11017 21039 58014
KMNN 171053Z AUTO 13004KT 10SM OVC030 M02/M06 A3023 RMK AO2 SLP249 T10221056
KMNN 171038Z AUTO 14005KT 10SM OVC030 M03/M05 A3023 RMK AO2 T10281050
KMNN 170953Z AUTO 17004KT 10SM OVC029 M03/M05 A3025 RMK AO2 SLP256 T10281050
KMNN 170853Z AUTO 00000KT 10SM OVC030 M03/M06 A3026 RMK AO2 SLP259 T10281056 56004
KMNN 170831Z AUTO 17003KT 10SM OVC030 M03/M06 A3026 RMK AO2 T10331061
KMNN 170813Z AUTO 00000KT 10SM BKN029 M03/M07 A3026 RMK AO2 T10331067
KMNN 170753Z AUTO 00000KT 10SM SCT029 M03/M07 A3026 RMK AO2 SLP260 T10331067